Aviation Digital Data Service (ADDS)

Output produced by METARs form (1318 UTC 25 February 2018)
found at http://aviationweather.gov/adds/metars/
 
KBTR 251139Z 2512/2612 20013KT P6SM VCSH FEW016 BKN026 
     FM251400 VRB05KT P6SM -RA OVC020 
     FM252000 12007KT P6SM -TSRA OVC020CB 
     FM260000 09006KT 4SM -SHRA BKN010